SWA2844 KDAL-KLIT
Flight info
| Callsign | SWA2844 |
|---|---|
| Flight time | 0h 44m |
| Altitude | 33000 |
| Route | LNDRE5 BSKAT LIT |
| Aircraft | B738/M-SADE2E3GIJ4RWZ/LB1D1 |
Departure
| Time | 2026-04-21 08:52 |
|---|---|
| Airport | Dallas Love Field (KDAL) |
Arrival
| Time | 2026-04-21 09:37 |
|---|---|
| Airport | Bill & Hillary Clinton National Airport/Adams Field (KLIT) |
| Time | Latitude | Longitude | Altitude | Speed | Heading |
|---|---|---|---|---|---|
| 2026-04-21 08:49 | 32.85277 | -96.85440 | 490 ft | 10 kts | 320° |
| 2026-04-21 08:49 | 32.85336 | -96.85503 | 482 ft | 14 kts | 318° |
| 2026-04-21 08:50 | 32.85424 | -96.85600 | 484 ft | 19 kts | 317° |
| 2026-04-21 08:50 | 32.85516 | -96.85705 | 484 ft | 16 kts | 316° |
| 2026-04-21 08:50 | 32.85597 | -96.85784 | 477 ft | 14 kts | 346° |
| 2026-04-21 08:50 | 32.85670 | -96.85735 | 481 ft | 11 kts | 45° |
| 2026-04-21 08:51 | 32.85706 | -96.85670 | 479 ft | 9 kts | 87° |
| 2026-04-21 08:51 | 32.85678 | -96.85621 | 481 ft | 8 kts | 132° |
| 2026-04-21 08:51 | 32.85510 | -96.85426 | 484 ft | 67 kts | 136° |
| 2026-04-21 08:51 | 32.85021 | -96.84862 | 493 ft | 127 kts | 136° |
| 2026-04-21 08:52 | 32.84322 | -96.84034 | 750 ft | 144 kts | 137° |
| 2026-04-21 08:52 | 32.83592 | -96.83170 | 964 ft | 160 kts | 135° |
| 2026-04-21 08:52 | 32.82756 | -96.82125 | 1101 ft | 187 kts | 135° |
| 2026-04-21 08:52 | 32.81798 | -96.81038 | 1745 ft | 191 kts | 142° |
| 2026-04-21 08:53 | 32.80778 | -96.80005 | 2527 ft | 195 kts | 143° |
| 2026-04-21 08:53 | 32.79721 | -96.78928 | 3147 ft | 206 kts | 142° |
| 2026-04-21 08:53 | 32.78593 | -96.77779 | 3681 ft | 222 kts | 142° |
| 2026-04-21 08:53 | 32.77373 | -96.76534 | 4181 ft | 240 kts | 142° |
| 2026-04-21 08:54 | 32.76066 | -96.75195 | 4790 ft | 254 kts | 140° |
| 2026-04-21 08:54 | 32.74793 | -96.73686 | 5512 ft | 262 kts | 139° |
| 2026-04-21 08:54 | 32.73462 | -96.72177 | 6303 ft | 267 kts | 139° |
| 2026-04-21 08:54 | 32.72105 | -96.70636 | 7076 ft | 272 kts | 139° |
| 2026-04-21 08:55 | 32.70739 | -96.69054 | 7812 ft | 277 kts | 138° |
| 2026-04-21 08:55 | 32.69376 | -96.67405 | 8557 ft | 283 kts | 133° |
| 2026-04-21 08:55 | 32.68442 | -96.65329 | 9310 ft | 292 kts | 106° |
| 2026-04-21 08:55 | 32.68224 | -96.62916 | 10077 ft | 297 kts | 93° |
| 2026-04-21 08:56 | 32.68193 | -96.60433 | 10688 ft | 305 kts | 91° |
| 2026-04-21 08:56 | 32.68178 | -96.57857 | 11127 ft | 319 kts | 91° |
| 2026-04-21 08:56 | 32.68527 | -96.55203 | 11522 ft | 336 kts | 68° |
| 2026-04-21 08:56 | 32.69824 | -96.52877 | 11861 ft | 353 kts | 43° |
| 2026-04-21 08:57 | 32.71883 | -96.51186 | 12156 ft | 369 kts | 29° |
| 2026-04-21 08:57 | 32.74187 | -96.49733 | 12625 ft | 380 kts | 25° |
| 2026-04-21 08:57 | 32.76573 | -96.48315 | 13187 ft | 388 kts | 26° |
| 2026-04-21 08:57 | 32.78973 | -96.46779 | 13800 ft | 394 kts | 28° |
| 2026-04-21 08:58 | 32.81378 | -96.45176 | 14401 ft | 399 kts | 28° |
| 2026-04-21 08:58 | 32.83831 | -96.43585 | 14984 ft | 403 kts | 27° |
| 2026-04-21 08:58 | 32.86315 | -96.42012 | 15568 ft | 407 kts | 27° |
| 2026-04-21 08:58 | 32.88824 | -96.40407 | 16140 ft | 412 kts | 27° |
| 2026-04-21 08:59 | 32.91358 | -96.38762 | 16710 ft | 416 kts | 27° |
| 2026-04-21 08:59 | 32.93918 | -96.37102 | 17288 ft | 420 kts | 27° |
| 2026-04-21 08:59 | 32.96502 | -96.35429 | 17837 ft | 425 kts | 29° |
| 2026-04-21 08:59 | 32.98866 | -96.33290 | 18390 ft | 431 kts | 44° |
| 2026-04-21 09:00 | 33.00693 | -96.30500 | 18875 ft | 435 kts | 60° |
| 2026-04-21 09:00 | 33.01999 | -96.27227 | 19338 ft | 439 kts | 67° |
| 2026-04-21 09:00 | 33.03188 | -96.23853 | 19802 ft | 443 kts | 68° |
| 2026-04-21 09:00 | 33.04360 | -96.20445 | 20272 ft | 447 kts | 68° |
| 2026-04-21 09:01 | 33.05570 | -96.17021 | 20738 ft | 450 kts | 67° |
| 2026-04-21 09:01 | 33.06809 | -96.13572 | 21215 ft | 454 kts | 67° |
| 2026-04-21 09:01 | 33.08042 | -96.10098 | 21689 ft | 457 kts | 67° |
| 2026-04-21 09:01 | 33.09271 | -96.06587 | 22167 ft | 460 kts | 67° |
| 2026-04-21 09:02 | 33.10517 | -96.03039 | 22616 ft | 464 kts | 67° |
| 2026-04-21 09:02 | 33.11775 | -95.99481 | 23060 ft | 467 kts | 67° |
| 2026-04-21 09:02 | 33.13037 | -95.95904 | 23517 ft | 470 kts | 67° |
| 2026-04-21 09:03 | 33.15578 | -95.88655 | 24305 ft | 476 kts | 67° |
| 2026-04-21 09:03 | 33.16862 | -95.84994 | 24661 ft | 480 kts | 67° |
| 2026-04-21 09:03 | 33.18138 | -95.81353 | 25019 ft | 483 kts | 67° |
| 2026-04-21 09:03 | 33.19435 | -95.77633 | 25369 ft | 486 kts | 67° |
| 2026-04-21 09:04 | 33.20733 | -95.73896 | 25713 ft | 489 kts | 68° |
| 2026-04-21 09:04 | 33.22043 | -95.70129 | 26051 ft | 492 kts | 67° |
| 2026-04-21 09:04 | 33.23359 | -95.66350 | 26397 ft | 495 kts | 67° |
| 2026-04-21 09:04 | 33.24682 | -95.62540 | 26735 ft | 498 kts | 68° |
| 2026-04-21 09:05 | 33.26009 | -95.58709 | 27083 ft | 501 kts | 68° |
| 2026-04-21 09:05 | 33.27338 | -95.54869 | 27559 ft | 500 kts | 68° |
| 2026-04-21 09:05 | 33.28668 | -95.51025 | 28016 ft | 500 kts | 68° |
| 2026-04-21 09:05 | 33.29993 | -95.47190 | 28463 ft | 499 kts | 68° |
| 2026-04-21 09:06 | 33.31316 | -95.43354 | 28901 ft | 499 kts | 68° |
| 2026-04-21 09:06 | 33.32642 | -95.39505 | 29187 ft | 503 kts | 68° |
| 2026-04-21 09:06 | 33.35331 | -95.31690 | 29153 ft | 502 kts | 68° |
| 2026-04-21 09:07 | 33.37963 | -95.24019 | 29155 ft | 498 kts | 68° |
| 2026-04-21 09:07 | 33.40569 | -95.16406 | 29157 ft | 497 kts | 68° |
| 2026-04-21 09:08 | 33.43186 | -95.08745 | 29159 ft | 497 kts | 68° |
| 2026-04-21 09:08 | 33.45801 | -95.01071 | 29159 ft | 498 kts | 68° |
| 2026-04-21 09:09 | 33.48410 | -94.93392 | 29161 ft | 498 kts | 68° |
| 2026-04-21 09:09 | 33.51017 | -94.85704 | 29161 ft | 498 kts | 68° |
| 2026-04-21 09:10 | 33.52317 | -94.81863 | 29422 ft | 497 kts | 68° |
| 2026-04-21 09:10 | 33.53611 | -94.78036 | 30005 ft | 494 kts | 68° |
| 2026-04-21 09:10 | 33.54893 | -94.74238 | 30633 ft | 489 kts | 68° |
| 2026-04-21 09:10 | 33.56160 | -94.70481 | 31225 ft | 483 kts | 68° |
| 2026-04-21 09:11 | 33.57409 | -94.66774 | 31760 ft | 478 kts | 68° |
| 2026-04-21 09:11 | 33.58662 | -94.63050 | 31894 ft | 484 kts | 68° |
| 2026-04-21 09:11 | 33.59923 | -94.59296 | 32185 ft | 483 kts | 68° |
| 2026-04-21 09:11 | 33.61172 | -94.55573 | 32673 ft | 479 kts | 67° |
| 2026-04-21 09:12 | 33.62412 | -94.51876 | 33138 ft | 476 kts | 67° |
| 2026-04-21 09:12 | 33.63653 | -94.48171 | 33253 ft | 482 kts | 67° |
| 2026-04-21 09:12 | 33.65733 | -94.41949 | 33255 ft | 484 kts | 67° |
| 2026-04-21 09:13 | 33.68239 | -94.34435 | 33261 ft | 485 kts | 67° |
| 2026-04-21 09:13 | 33.70741 | -94.26917 | 33264 ft | 484 kts | 67° |
| 2026-04-21 09:14 | 33.73857 | -94.19762 | 33274 ft | 483 kts | 58° |
| 2026-04-21 09:14 | 33.77228 | -94.12789 | 33272 ft | 482 kts | 58° |
| 2026-04-21 09:15 | 33.80559 | -94.05783 | 33281 ft | 482 kts | 58° |
| 2026-04-21 09:15 | 33.83886 | -93.98835 | 33276 ft | 482 kts | 58° |
| 2026-04-21 09:16 | 33.87219 | -93.91826 | 33282 ft | 482 kts | 58° |
| 2026-04-21 09:16 | 33.90576 | -93.84769 | 33274 ft | 481 kts | 58° |
| 2026-04-21 09:17 | 33.93888 | -93.77785 | 33278 ft | 480 kts | 58° |
| 2026-04-21 09:17 | 33.97183 | -93.70829 | 33060 ft | 490 kts | 58° |
| 2026-04-21 09:18 | 33.98911 | -93.67183 | 32260 ft | 508 kts | 58° |
| 2026-04-21 09:18 | 34.00646 | -93.63500 | 31534 ft | 501 kts | 58° |
| 2026-04-21 09:18 | 34.02360 | -93.59856 | 30830 ft | 499 kts | 58° |
| 2026-04-21 09:18 | 34.04084 | -93.56221 | 30056 ft | 498 kts | 56° |
| 2026-04-21 09:19 | 34.05978 | -93.52745 | 29301 ft | 494 kts | 54° |
| 2026-04-21 09:19 | 34.07893 | -93.49322 | 28539 ft | 491 kts | 54° |
| 2026-04-21 09:19 | 34.09794 | -93.45911 | 27769 ft | 489 kts | 54° |
| 2026-04-21 09:19 | 34.11678 | -93.42503 | 26973 ft | 487 kts | 54° |
| 2026-04-21 09:20 | 34.13559 | -93.39099 | 26150 ft | 486 kts | 54° |
| 2026-04-21 09:20 | 34.15439 | -93.35708 | 25306 ft | 485 kts | 54° |
| 2026-04-21 09:20 | 34.17311 | -93.32331 | 24455 ft | 484 kts | 54° |
| 2026-04-21 09:20 | 34.19180 | -93.28948 | 23544 ft | 483 kts | 55° |
| 2026-04-21 09:21 | 34.21009 | -93.25630 | 22699 ft | 478 kts | 55° |
| 2026-04-21 09:21 | 34.22844 | -93.22303 | 21866 ft | 474 kts | 55° |
| 2026-04-21 09:21 | 34.24666 | -93.18999 | 21030 ft | 470 kts | 56° |
| 2026-04-21 09:21 | 34.26467 | -93.15729 | 20193 ft | 466 kts | 56° |
| 2026-04-21 09:22 | 34.28246 | -93.12493 | 19386 ft | 455 kts | 56° |
| 2026-04-21 09:22 | 34.29972 | -93.09352 | 18583 ft | 444 kts | 57° |
| 2026-04-21 09:22 | 34.31661 | -93.06276 | 17767 ft | 433 kts | 57° |
| 2026-04-21 09:22 | 34.33300 | -93.03288 | 17005 ft | 421 kts | 57° |
| 2026-04-21 09:23 | 34.34897 | -93.00374 | 16277 ft | 411 kts | 57° |
| 2026-04-21 09:23 | 34.36466 | -92.97510 | 15559 ft | 407 kts | 57° |
| 2026-04-21 09:23 | 34.38035 | -92.94643 | 14834 ft | 409 kts | 57° |
| 2026-04-21 09:23 | 34.39597 | -92.91786 | 14099 ft | 403 kts | 57° |
| 2026-04-21 09:24 | 34.41107 | -92.89023 | 13359 ft | 376 kts | 57° |
| 2026-04-21 09:24 | 34.42480 | -92.86507 | 12728 ft | 343 kts | 57° |
| 2026-04-21 09:24 | 34.43753 | -92.84175 | 12153 ft | 323 kts | 57° |
| 2026-04-21 09:24 | 34.44961 | -92.81961 | 11601 ft | 316 kts | 57° |
| 2026-04-21 09:25 | 34.46158 | -92.79765 | 11106 ft | 308 kts | 58° |
| 2026-04-21 09:25 | 34.47317 | -92.77636 | 10927 ft | 299 kts | 58° |
| 2026-04-21 09:25 | 34.48450 | -92.75556 | 10827 ft | 292 kts | 58° |
| 2026-04-21 09:25 | 34.49558 | -92.73518 | 10713 ft | 289 kts | 58° |
| 2026-04-21 09:26 | 34.50674 | -92.71463 | 10611 ft | 297 kts | 58° |
| 2026-04-21 09:26 | 34.51840 | -92.69316 | 10518 ft | 309 kts | 58° |
| 2026-04-21 09:26 | 34.53020 | -92.67146 | 10401 ft | 306 kts | 58° |
| 2026-04-21 09:26 | 34.54178 | -92.65013 | 10269 ft | 298 kts | 58° |
| 2026-04-21 09:27 | 34.55313 | -92.62921 | 10080 ft | 298 kts | 58° |
| 2026-04-21 09:27 | 34.56471 | -92.60781 | 9727 ft | 307 kts | 58° |
| 2026-04-21 09:27 | 34.57643 | -92.58618 | 9389 ft | 306 kts | 58° |
| 2026-04-21 09:27 | 34.58809 | -92.56467 | 9057 ft | 305 kts | 58° |
| 2026-04-21 09:28 | 34.59972 | -92.54318 | 8735 ft | 303 kts | 58° |
| 2026-04-21 09:28 | 34.61125 | -92.52185 | 8409 ft | 302 kts | 58° |
| 2026-04-21 09:28 | 34.62274 | -92.50059 | 8090 ft | 301 kts | 58° |
| 2026-04-21 09:28 | 34.63420 | -92.47937 | 7770 ft | 300 kts | 57° |
| 2026-04-21 09:29 | 34.64559 | -92.45827 | 7454 ft | 299 kts | 57° |
| 2026-04-21 09:29 | 34.65696 | -92.43719 | 7135 ft | 298 kts | 57° |
| 2026-04-21 09:29 | 34.66827 | -92.41622 | 6826 ft | 297 kts | 57° |
| 2026-04-21 09:29 | 34.67958 | -92.39522 | 6504 ft | 296 kts | 57° |
| 2026-04-21 09:30 | 34.69087 | -92.37427 | 6195 ft | 295 kts | 58° |
| 2026-04-21 09:30 | 34.70194 | -92.35370 | 5891 ft | 294 kts | 58° |
| 2026-04-21 09:30 | 34.71313 | -92.33290 | 5586 ft | 293 kts | 58° |
| 2026-04-21 09:30 | 34.72427 | -92.31218 | 5273 ft | 292 kts | 58° |
| 2026-04-21 09:31 | 34.73538 | -92.29150 | 4961 ft | 292 kts | 58° |
| 2026-04-21 09:31 | 34.74639 | -92.27100 | 4681 ft | 281 kts | 58° |
| 2026-04-21 09:31 | 34.75644 | -92.25231 | 4397 ft | 249 kts | 58° |
| 2026-04-21 09:31 | 34.76549 | -92.23545 | 4131 ft | 227 kts | 59° |
| 2026-04-21 09:32 | 34.77376 | -92.22001 | 3891 ft | 210 kts | 59° |
| 2026-04-21 09:32 | 34.78146 | -92.20565 | 3657 ft | 196 kts | 59° |
| 2026-04-21 09:32 | 34.78870 | -92.19212 | 3461 ft | 188 kts | 59° |
| 2026-04-21 09:32 | 34.79587 | -92.17869 | 3249 ft | 189 kts | 60° |
| 2026-04-21 09:33 | 34.80300 | -92.16536 | 3058 ft | 187 kts | 60° |
| 2026-04-21 09:33 | 34.80921 | -92.15179 | 2847 ft | 176 kts | 82° |
| 2026-04-21 09:33 | 34.80820 | -92.13791 | 2687 ft | 161 kts | 124° |
| 2026-04-21 09:33 | 34.80091 | -92.12965 | 2457 ft | 134 kts | 163° |
| 2026-04-21 09:34 | 34.79205 | -92.12910 | 1909 ft | 122 kts | 200° |
| 2026-04-21 09:34 | 34.78488 | -92.13397 | 1753 ft | 125 kts | 217° |
| 2026-04-21 09:34 | 34.77894 | -92.14143 | 1582 ft | 120 kts | 225° |
| 2026-04-21 09:34 | 34.77346 | -92.14895 | 1430 ft | 119 kts | 226° |
| 2026-04-21 09:35 | 34.76786 | -92.15663 | 1273 ft | 124 kts | 226° |
| 2026-04-21 09:35 | 34.76207 | -92.16456 | 1098 ft | 127 kts | 226° |
| 2026-04-21 09:35 | 34.75622 | -92.17272 | 912 ft | 128 kts | 229° |
| 2026-04-21 09:35 | 34.75033 | -92.18094 | 735 ft | 129 kts | 228° |
| 2026-04-21 09:36 | 34.74441 | -92.18908 | 568 ft | 129 kts | 228° |
| 2026-04-21 09:36 | 34.73840 | -92.19690 | 379 ft | 125 kts | 227° |
| 2026-04-21 09:36 | 34.73262 | -92.20426 | 295 ft | 115 kts | 226° |
| 2026-04-21 09:36 | 34.72792 | -92.21032 | 266 ft | 74 kts | 227° |
| 2026-04-21 09:37 | 34.72508 | -92.21403 | 268 ft | 46 kts | 229° |
| 2026-04-21 09:37 | 34.72417 | -92.21630 | 267 ft | 9 kts | 258° |
| 2026-04-21 09:37 | 34.72417 | -92.21653 | 267 ft | 1 kts | 279° |
| 2026-04-21 09:37 | 34.72438 | -92.21686 | 268 ft | 8 kts | 328° |
| 2026-04-21 09:38 | 34.72487 | -92.21677 | 268 ft | 6 kts | 44° |
| 2026-04-21 09:38 | 34.72532 | -92.21622 | 268 ft | 13 kts | 45° |
| 2026-04-21 09:38 | 34.72609 | -92.21524 | 268 ft | 18 kts | 46° |
| 2026-04-21 09:38 | 34.72690 | -92.21422 | 268 ft | 16 kts | 46° |
| 2026-04-21 09:39 | 34.72760 | -92.21332 | 268 ft | 14 kts | 46° |
| 2026-04-21 09:39 | 34.72825 | -92.21307 | 268 ft | 9 kts | 333° |
| 2026-04-21 09:39 | 34.72862 | -92.21373 | 268 ft | 11 kts | 296° |
| 2026-04-21 09:39 | 34.72899 | -92.21471 | 268 ft | 15 kts | 294° |
| 2026-04-21 09:40 | 34.72946 | -92.21599 | 268 ft | 17 kts | 294° |
| 2026-04-21 09:40 | 34.72990 | -92.21716 | 268 ft | 13 kts | 294° |
| 2026-04-21 09:40 | 34.73015 | -92.21806 | 268 ft | 10 kts | 270° |
| 2026-04-21 09:40 | 34.72987 | -92.21862 | 268 ft | 6 kts | 241° |
| 2026-04-21 09:41 | 34.72987 | -92.21888 | 268 ft | 2 kts | 284° |
| 2026-04-21 09:41 | 34.72993 | -92.21910 | 268 ft | 3 kts | 290° |
| 2026-04-21 09:41 | 34.72999 | -92.21928 | 268 ft | 1 kts | 291° |
| 2026-04-21 09:41 | 34.73003 | -92.21941 | 268 ft | 1 kts | 291° |